createdAt,value
2022-08-19T00:02:36.891Z,98309.47
2022-08-19T00:05:38.635Z,98307.28
2022-08-19T00:08:40.683Z,98294.97
2022-08-19T00:11:46.942Z,98303.84
2022-08-19T00:14:48.757Z,98305.19
2022-08-19T00:17:50.628Z,98299.75
2022-08-19T00:20:52.706Z,98298.38
2022-08-19T00:23:59.285Z,98287.81
2022-08-19T00:27:26.312Z,98291.41
2022-08-19T00:30:24.391Z,98292.00
2022-08-19T00:33:26.851Z,98282.53
2022-08-19T00:36:33.993Z,98274.13
2022-08-19T00:39:35.825Z,98284.22
2022-08-19T00:42:38.569Z,98290.50
2022-08-19T00:45:44.676Z,98285.34
2022-08-19T00:48:46.394Z,98277.69
2022-08-19T00:51:52.694Z,98276.66
2022-08-19T00:54:54.568Z,98281.81
2022-08-19T00:58:01.500Z,98283.16
2022-08-19T01:01:05.170Z,98284.00
2022-08-19T01:04:07.235Z,98277.53
2022-08-19T01:07:09.227Z,98275.94
2022-08-19T01:10:20.083Z,98274.28
2022-08-19T01:13:26.732Z,98282.22
2022-08-19T01:16:30.875Z,98292.84
2022-08-19T01:19:43.656Z,98293.66
2022-08-19T01:22:50.031Z,98293.41
2022-08-19T01:25:54.716Z,98280.38
2022-08-19T01:28:59.647Z,98282.81
2022-08-19T01:32:03.134Z,98293.41
2022-08-19T01:35:05.877Z,98296.97
2022-08-19T01:38:11.048Z,98308.91
2022-08-19T01:41:14.229Z,98297.50
2022-08-19T01:44:19.327Z,98279.25
2022-08-19T01:47:21.155Z,98256.13
2022-08-19T01:50:23.244Z,98269.47
2022-08-19T01:53:26.716Z,98296.66
2022-08-19T01:56:35.746Z,98293.38
2022-08-19T01:59:37.764Z,98287.41
2022-08-19T02:02:40.720Z,98293.16
2022-08-19T02:05:46.721Z,98308.66
2022-08-19T02:08:48.846Z,98296.69
2022-08-19T02:11:52.975Z,98290.44
2022-08-19T02:14:54.694Z,98279.31
2022-08-19T02:17:56.430Z,98275.25
2022-08-19T02:20:58.146Z,98289.69
2022-08-19T02:24:00.112Z,98295.09
2022-08-19T02:27:01.906Z,98287.75
2022-08-19T02:30:06.318Z,98283.94
2022-08-19T02:33:08.099Z,98270.91
2022-08-19T02:36:11.097Z,98254.59
2022-08-19T02:39:13.118Z,98254.59
2022-08-19T02:42:14.772Z,98269.00
2022-08-19T02:45:16.650Z,98267.94
2022-08-19T02:48:23.386Z,98276.63
2022-08-19T02:51:28.573Z,98272.81
2022-08-19T02:54:30.308Z,98279.06
2022-08-19T02:57:32.827Z,98285.06
2022-08-19T03:00:34.620Z,98277.19
2022-08-19T03:03:43.804Z,98285.06
2022-08-19T03:06:47.688Z,98295.94
2022-08-19T03:09:49.415Z,98301.66
2022-08-19T03:12:51.245Z,98294.56
2022-08-19T03:15:53.126Z,98295.66
2022-08-19T03:18:57.340Z,98316.28
2022-08-19T03:21:59.592Z,98325.50
2022-08-19T03:25:01.312Z,98331.94
2022-08-19T03:28:03.241Z,98334.63
2022-08-19T03:31:42.110Z,98349.81
2022-08-19T03:34:35.566Z,98347.09
2022-08-19T03:37:37.272Z,98350.59
2022-08-19T03:40:43.944Z,98355.75
2022-08-19T03:43:47.691Z,98354.69
2022-08-19T03:46:56.134Z,98344.34
2022-08-19T03:49:57.964Z,98347.59
2022-08-19T03:53:00.171Z,98350.03
2022-08-19T03:56:02.306Z,98338.91
2022-08-19T03:59:06.416Z,98344.31
2022-08-19T04:02:11.844Z,98347.00
2022-08-19T04:05:15.052Z,98360.09
2022-08-19T04:08:19.950Z,98368.53
2022-08-19T04:11:24.927Z,98369.38
2022-08-19T04:14:45.846Z,98365.91
2022-08-19T04:17:47.641Z,98360.75
2022-08-19T04:20:49.737Z,98357.00
2022-08-19T04:23:52.170Z,98356.47
2022-08-19T04:26:53.961Z,98366.53
2022-08-19T04:29:56.125Z,98375.00
2022-08-19T04:32:57.857Z,98382.28
2022-08-19T04:35:59.740Z,98380.16
2022-08-19T04:39:05.926Z,98379.34
2022-08-19T04:42:30.863Z,98381.50
2022-08-19T04:45:39.623Z,98392.69
2022-08-19T04:48:49.432Z,98392.69
2022-08-19T04:51:55.115Z,98407.09
2022-08-19T04:54:56.850Z,98407.38
2022-08-19T04:57:58.530Z,98409.28
2022-08-19T05:01:02.004Z,98408.16
2022-08-19T05:04:07.144Z,98411.97
2022-08-19T05:07:09.465Z,98408.16
2022-08-19T05:10:11.281Z,98414.69
2022-08-19T05:13:13.023Z,98410.06
2022-08-19T05:16:16.949Z,98419.03
2022-08-19T05:19:37.158Z,98429.94
2022-08-19T05:22:38.980Z,98438.09
2022-08-19T05:25:41.376Z,98449.19
2022-08-19T05:28:43.412Z,98463.03
2022-08-19T05:31:46.001Z,98459.03
2022-08-19T05:34:47.751Z,98459.28
2022-08-19T05:37:49.499Z,98464.19
2022-08-19T05:40:58.695Z,98472.63
2022-08-19T05:44:04.119Z,98468.81
2022-08-19T05:47:09.365Z,98478.59
2022-08-19T05:50:11.509Z,98488.13
2022-08-19T05:53:15.546Z,98502.25
2022-08-19T05:56:18.850Z,98505.25
2022-08-19T05:59:22.415Z,98519.13
2022-08-19T06:02:31.710Z,98524.81
2022-08-19T06:05:33.742Z,98527.75
2022-08-19T06:08:51.671Z,98533.19
2022-08-19T06:11:56.318Z,98533.38
2022-08-19T06:15:01.002Z,98526.56
2022-08-19T06:18:04.518Z,98535.28
2022-08-19T06:21:06.301Z,98532.75
2022-08-19T06:24:10.812Z,98544.88
2022-08-19T06:27:12.614Z,98558.38
2022-08-19T06:30:15.118Z,98549.63
2022-08-19T06:33:16.957Z,98552.13
2022-08-19T06:36:32.210Z,98546.44
2022-08-19T06:39:39.621Z,98545.88
2022-08-19T06:42:51.786Z,98546.88
2022-08-19T06:45:56.958Z,98552.50
2022-08-19T06:49:01.455Z,98543.34
2022-08-19T06:52:04.385Z,98550.59
2022-08-19T06:55:07.153Z,98545.59
2022-08-19T06:58:10.208Z,98545.66
2022-08-19T07:01:11.975Z,98536.38
2022-08-19T07:04:16.611Z,98522.41
2022-08-19T07:07:21.123Z,98524.50
2022-08-19T07:10:23.362Z,98526.78
2022-08-19T07:13:27.787Z,98515.25
2022-08-19T07:16:29.766Z,98515.56
2022-08-19T07:19:32.395Z,98512.34
2022-08-19T07:22:35.794Z,98512.47
2022-08-19T07:25:38.848Z,98506.00
2022-08-19T07:28:46.134Z,98495.03
2022-08-19T07:31:59.997Z,98486.63
2022-08-19T07:35:04.303Z,98469.84
2022-08-19T07:38:06.090Z,98466.59
2022-08-19T07:41:10.215Z,98452.59
2022-08-19T07:44:13.471Z,98448.47
2022-08-19T07:47:50.286Z,98460.13
2022-08-19T07:50:38.703Z,98459.00
2022-08-19T07:53:40.735Z,98475.25
2022-08-19T07:56:42.638Z,98470.91
2022-08-19T07:59:44.430Z,98474.22
2022-08-19T08:02:46.171Z,98485.94
2022-08-19T08:06:24.464Z,98489.63
2022-08-19T08:09:39.386Z,98506.59
2022-08-19T08:12:42.423Z,98498.81
2022-08-19T08:15:45.591Z,98513.78
2022-08-19T08:18:50.695Z,98525.31
2022-08-19T08:21:58.345Z,98524.19
2022-08-19T08:25:05.315Z,98523.78
2022-08-19T08:28:11.439Z,98537.88
2022-08-19T08:31:20.207Z,98544.38
2022-08-19T08:34:22.436Z,98535.47
2022-08-19T08:37:24.276Z,98549.72
2022-08-19T08:40:55.708Z,98546.50
2022-08-19T08:43:59.425Z,98546.97
2022-08-19T08:47:08.880Z,98542.78
2022-08-19T08:50:20.340Z,98547.47
2022-08-19T08:53:29.712Z,98542.13
2022-08-19T08:56:34.140Z,98525.13
2022-08-19T08:59:40.050Z,98511.72
2022-08-19T09:02:41.775Z,98512.44
2022-08-19T09:06:11.999Z,98507.38
2022-08-19T09:09:24.622Z,98492.16
2022-08-19T09:12:56.135Z,98479.53
2022-08-19T09:16:07.566Z,98472.13
2022-08-19T09:19:11.613Z,98459.16
2022-08-19T09:22:13.799Z,98476.44
2022-08-19T09:25:29.545Z,98484.28
2022-08-19T09:28:32.461Z,98484.16
2022-08-19T09:31:34.233Z,98492.91
2022-08-19T09:34:37.889Z,98498.00
2022-08-19T09:37:40.454Z,98495.66
2022-08-19T09:40:42.276Z,98484.00
2022-08-19T09:43:47.936Z,98482.53
2022-08-19T09:46:50.408Z,98483.34
2022-08-19T09:49:52.227Z,98483.53
2022-08-19T09:52:57.189Z,98473.47
2022-08-19T09:55:59.514Z,98460.16
2022-08-19T09:59:03.333Z,98465.81
2022-08-19T10:02:11.006Z,98457.25
2022-08-19T10:05:38.857Z,98456.91
2022-08-19T10:08:50.185Z,98489.13
2022-08-19T10:11:54.809Z,98512.09
2022-08-19T10:14:57.227Z,98515.44
2022-08-19T10:18:00.277Z,98541.63
2022-08-19T10:21:23.934Z,98561.56
2022-08-19T10:24:28.932Z,98540.28
2022-08-19T10:27:32.498Z,98525.00
2022-08-19T10:30:36.270Z,98506.47
2022-08-19T10:33:53.624Z,98515.91
2022-08-19T10:37:01.285Z,98519.44
2022-08-19T10:40:08.540Z,98536.38
2022-08-19T10:43:10.698Z,98529.66
2022-08-19T10:46:16.670Z,98522.09
2022-08-19T10:49:20.349Z,98500.34
2022-08-19T10:52:39.050Z,98502.13
2022-08-19T10:55:59.396Z,98504.84
2022-08-19T10:59:04.037Z,98503.78
2022-08-19T11:02:12.963Z,98508.22
2022-08-19T11:05:16.308Z,98506.03
2022-08-19T11:08:23.206Z,98500.16
2022-08-19T11:11:25.923Z,98501.31
2022-08-19T11:14:28.276Z,98496.41
2022-08-19T11:17:33.997Z,98490.03
2022-08-19T11:20:35.706Z,98490.94
2022-08-19T11:23:37.967Z,98490.78
2022-08-19T11:26:42.332Z,98498.03
2022-08-19T11:29:44.077Z,98485.34
2022-08-19T11:32:49.374Z,98467.16
2022-08-19T11:35:51.523Z,98463.66
2022-08-19T11:38:54.061Z,98479.25
2022-08-19T11:41:56.836Z,98479.31
2022-08-19T11:44:58.585Z,98469.25
2022-08-19T11:48:00.411Z,98459.50
2022-08-19T11:51:10.383Z,98456.75
2022-08-19T11:54:14.319Z,98465.22
2022-08-19T11:57:17.926Z,98475.66
2022-08-19T12:00:19.960Z,98477.25
2022-08-19T12:03:22.178Z,98476.44
2022-08-19T12:06:29.702Z,98483.16
2022-08-19T12:09:32.824Z,98471.91
2022-08-19T12:12:34.652Z,98485.09
2022-08-19T12:15:38.634Z,98514.41
2022-08-19T12:18:44.357Z,98515.56
2022-08-19T12:21:46.177Z,98510.81
2022-08-19T12:24:49.023Z,98532.53
2022-08-19T12:27:57.243Z,98544.50
2022-08-19T12:30:59.751Z,98546.88
2022-08-19T12:34:02.470Z,98557.50
2022-08-19T12:37:06.428Z,98547.47
2022-08-19T12:40:08.880Z,98533.31
2022-08-19T12:43:12.594Z,98522.34
2022-08-19T12:46:15.197Z,98504.19
2022-08-19T12:49:52.256Z,98491.13
2022-08-19T12:52:43.394Z,98496.84
2022-08-19T12:55:45.272Z,98502.34
2022-08-19T12:58:48.678Z,98491.47
2022-08-19T13:01:50.836Z,98487.91
2022-08-19T13:04:52.564Z,98471.16
2022-08-19T13:07:58.301Z,98458.56
2022-08-19T13:11:12.814Z,98484.28
2022-08-19T13:14:14.655Z,98473.69
2022-08-19T13:17:16.697Z,98505.06
2022-08-19T13:20:20.539Z,98535.13
2022-08-19T13:23:22.678Z,98514.72
2022-08-19T13:26:24.759Z,98497.69
2022-08-19T13:29:45.032Z,98504.78
2022-08-19T13:33:05.355Z,98491.53
2022-08-19T13:36:08.911Z,98493.22
2022-08-19T13:39:11.217Z,98495.75
2022-08-19T13:42:14.947Z,98491.25
2022-08-19T13:45:20.622Z,98491.69
2022-08-19T13:48:23.265Z,98487.72
2022-08-19T13:51:25.175Z,98488.34
2022-08-19T13:54:28.009Z,98463.00
2022-08-19T13:57:29.771Z,98486.50
2022-08-19T14:00:35.731Z,98480.75
2022-08-19T14:03:38.923Z,98477.53
2022-08-19T14:06:40.673Z,98474.44
2022-08-19T14:09:42.513Z,98466.59
2022-08-19T14:12:45.342Z,98460.22
2022-08-19T14:15:48.425Z,98460.66
2022-08-19T14:18:50.311Z,98451.53
2022-08-19T14:21:52.079Z,98446.31
2022-08-19T14:24:53.821Z,98437.97
2022-08-19T14:27:56.750Z,98434.06
2022-08-19T14:30:58.655Z,98414.09
2022-08-19T14:34:00.599Z,98408.59
2022-08-19T14:37:02.473Z,98410.03
2022-08-19T14:40:05.439Z,98390.41
2022-08-19T14:43:07.271Z,98386.97
2022-08-19T14:46:11.223Z,98389.97
2022-08-19T14:49:13.318Z,98382.91
2022-08-19T14:52:15.266Z,98374.41
2022-08-19T14:55:19.026Z,98360.28
2022-08-19T14:58:29.805Z,98356.72
2022-08-19T15:01:32.231Z,98340.88
2022-08-19T15:04:34.257Z,98333.72
2022-08-19T15:07:36.105Z,98340.34
2022-08-19T15:10:40.045Z,98321.16
2022-08-19T15:13:42.726Z,98331.53
2022-08-19T15:16:44.471Z,98325.22
2022-08-19T15:19:46.749Z,98323.56
2022-08-19T15:22:48.571Z,98330.34
2022-08-19T15:25:56.525Z,98322.00
2022-08-19T15:29:00.313Z,98320.50
2022-08-19T15:32:02.048Z,98315.09
2022-08-19T15:35:06.065Z,98314.81
2022-08-19T15:38:08.738Z,98305.16
2022-08-19T15:41:25.566Z,98311.59
2022-08-19T15:44:27.563Z,98300.84
2022-08-19T15:47:34.421Z,98323.28
2022-08-19T15:50:37.753Z,98323.09
2022-08-19T15:53:40.881Z,98328.16
2022-08-19T15:57:01.190Z,98310.69
2022-08-19T16:00:22.400Z,98314.03
2022-08-19T16:03:47.564Z,98323.56
2022-08-19T16:06:52.909Z,98318.88
2022-08-19T16:09:54.534Z,98320.34
2022-08-19T16:12:58.148Z,98331.69
2022-08-19T16:16:00.000Z,98331.09
2022-08-19T16:19:10.314Z,98345.59
2022-08-19T16:22:14.026Z,98336.38
2022-08-19T16:25:16.100Z,98341.69
2022-08-19T16:28:17.831Z,98339.63
2022-08-19T16:31:19.545Z,98347.84
2022-08-19T16:34:21.974Z,98349.56
2022-08-19T16:37:23.796Z,98348.66
2022-08-19T16:40:25.780Z,98342.69
2022-08-19T16:43:29.303Z,98336.94
2022-08-19T16:46:31.132Z,98348.94
2022-08-19T16:49:54.540Z,98338.53
2022-08-19T16:52:58.751Z,98338.75
2022-08-19T16:56:01.452Z,98332.22
2022-08-19T16:59:03.685Z,98331.34
2022-08-19T17:02:05.703Z,98324.09
2022-08-19T17:05:10.780Z,98330.59
2022-08-19T17:08:13.888Z,98335.44
2022-08-19T17:11:18.514Z,98336.25
2022-08-19T17:14:21.969Z,98328.84
2022-08-19T17:17:27.041Z,98322.66
2022-08-19T17:20:31.594Z,98320.19
2022-08-19T17:23:42.646Z,98306.13
2022-08-19T17:26:45.947Z,98309.28
2022-08-19T17:29:48.157Z,98307.81
2022-08-19T17:32:50.427Z,98327.00
2022-08-19T17:35:52.187Z,98351.22
2022-08-19T17:38:58.046Z,98362.72
2022-08-19T17:42:02.577Z,98365.31
2022-08-19T17:45:06.174Z,98374.41
2022-08-19T17:48:10.514Z,98382.81
2022-08-19T17:51:35.707Z,98376.94
2022-08-19T17:54:37.454Z,98384.81
2022-08-19T17:57:41.216Z,98383.50
2022-08-19T18:00:53.695Z,98400.22
2022-08-19T18:03:55.900Z,98391.28
2022-08-19T18:06:58.412Z,98400.06
2022-08-19T18:10:01.811Z,98404.88
2022-08-19T18:13:17.630Z,98410.53
2022-08-19T18:16:22.073Z,98417.66
2022-08-19T18:19:25.546Z,98426.59
2022-08-19T18:22:36.989Z,98418.56
2022-08-19T18:25:41.993Z,98417.88
2022-08-19T18:28:49.712Z,98419.97
2022-08-19T18:31:51.813Z,98424.03
2022-08-19T18:34:54.885Z,98424.63
2022-08-19T18:37:59.130Z,98419.72
2022-08-19T18:41:20.108Z,98439.69
2022-08-19T18:44:40.523Z,98434.22
2022-08-19T18:48:00.603Z,98438.94
2022-08-19T18:51:02.508Z,98422.94
2022-08-19T18:54:04.509Z,98435.38
2022-08-19T18:57:07.272Z,98426.16
2022-08-19T19:00:10.454Z,98411.47
2022-08-19T19:03:12.188Z,98417.28
2022-08-19T19:06:18.993Z,98441.03
2022-08-19T19:09:24.650Z,98446.59
2022-08-19T19:12:29.863Z,98456.22
2022-08-19T19:15:32.876Z,98462.75
2022-08-19T19:18:35.045Z,98470.69
2022-08-19T19:21:36.772Z,98496.22
2022-08-19T19:24:40.419Z,98502.75
2022-08-19T19:27:42.125Z,98529.72
2022-08-19T19:30:43.905Z,98565.34
2022-08-19T19:33:46.478Z,98586.06
2022-08-19T19:36:49.985Z,98583.31
2022-08-19T19:39:52.484Z,98578.69
2022-08-19T19:42:55.664Z,98569.16
2022-08-19T19:45:57.660Z,98557.75
2022-08-19T19:49:00.382Z,98578.69
2022-08-19T19:52:02.265Z,98583.03
2022-08-19T19:55:04.398Z,98572.44
2022-08-19T19:58:07.018Z,98571.88
2022-08-19T20:01:12.613Z,98560.72
2022-08-19T20:04:19.289Z,98555.78
2022-08-19T20:07:40.954Z,98547.81
2022-08-19T20:10:43.772Z,98555.97
2022-08-19T20:13:45.541Z,98560.31
2022-08-19T20:16:49.180Z,98571.19
2022-08-19T20:19:51.014Z,98610.81
2022-08-19T20:22:53.854Z,98615.72
2022-08-19T20:25:55.831Z,98616.28
2022-08-19T20:29:13.254Z,98619.03
2022-08-19T20:32:19.360Z,98631.84
2022-08-19T20:35:21.720Z,98641.63
2022-08-19T20:38:23.429Z,98652.19
2022-08-19T20:41:25.308Z,98656.28
2022-08-19T20:44:27.075Z,98659.81
2022-08-19T20:47:31.262Z,98644.88
2022-08-19T20:50:35.074Z,98616.28
2022-08-19T20:53:38.570Z,98616.81
2022-08-19T20:56:40.369Z,98613.22
2022-08-19T20:59:42.097Z,98617.28
2022-08-19T21:02:43.974Z,98627.06
2022-08-19T21:05:46.473Z,98630.81
2022-08-19T21:08:48.894Z,98634.91
2022-08-19T21:11:51.060Z,98637.59
2022-08-19T21:14:52.923Z,98650.88
2022-08-19T21:17:54.803Z,98654.09
2022-08-19T21:20:56.701Z,98646.94
2022-08-19T21:23:58.522Z,98634.88
2022-08-19T21:27:00.566Z,98628.56
2022-08-19T21:30:03.903Z,98621.25
2022-08-19T21:33:06.394Z,98619.50
2022-08-19T21:36:09.511Z,98620.03
2022-08-19T21:39:11.386Z,98615.34
2022-08-19T21:42:14.360Z,98617.50
2022-08-19T21:45:19.709Z,98617.97
2022-08-19T21:48:21.433Z,98620.34
2022-08-19T21:51:23.225Z,98620.56
2022-08-19T21:54:25.005Z,98625.47
2022-08-19T21:57:26.730Z,98632.28
2022-08-19T22:00:32.209Z,98627.25
2022-08-19T22:03:36.406Z,98621.25
2022-08-19T22:06:38.085Z,98613.91
2022-08-19T22:09:44.571Z,98624.19
2022-08-19T22:12:51.271Z,98626.28
2022-08-19T22:15:55.167Z,98630.81
2022-08-19T22:18:57.397Z,98633.47
2022-08-19T22:21:59.140Z,98648.53
2022-08-19T22:25:08.867Z,98653.41
2022-08-19T22:28:12.857Z,98656.94
2022-08-19T22:31:16.103Z,98665.38
2022-08-19T22:34:18.466Z,98675.47
2022-08-19T22:37:20.353Z,98684.38
2022-08-19T22:40:22.086Z,98705.28
2022-08-19T22:43:28.536Z,98692.84
2022-08-19T22:46:33.637Z,98692.84
2022-08-19T22:49:35.544Z,98708.28
2022-08-19T22:52:37.313Z,98712.78
2022-08-19T22:55:39.333Z,98707.34
2022-08-19T22:58:42.245Z,98701.38
2022-08-19T23:01:44.222Z,98713.09
2022-08-19T23:04:46.005Z,98713.09
2022-08-19T23:07:52.454Z,98719.34
2022-08-19T23:10:54.344Z,98708.81
2022-08-19T23:13:56.048Z,98687.75
2022-08-19T23:16:59.233Z,98671.38
2022-08-19T23:20:01.417Z,98686.28
2022-08-19T23:23:06.268Z,98697.53
2022-08-19T23:26:10.783Z,98701.94
2022-08-19T23:29:32.203Z,98687.91
2022-08-19T23:32:35.251Z,98686.75
2022-08-19T23:35:38.374Z,98683.72
2022-08-19T23:38:42.994Z,98691.84
2022-08-19T23:41:44.721Z,98675.53
2022-08-19T23:44:51.277Z,98665.97
2022-08-19T23:47:54.542Z,98673.25
2022-08-19T23:50:57.203Z,98680.47
2022-08-19T23:53:58.962Z,98683.66
2022-08-19T23:57:00.677Z,98683.84
